sensor_id;sensor_type;location;lat;lon;timestamp;noise_LAeq;noise_LA_min;noise_LA_max;noise_LA01;noise_LA95
82857;Laerm;72620;47.774;9.620;2023-11-21T00:01:16;48.95;47.43;51.22;;
82857;Laerm;72620;47.774;9.620;2023-11-21T00:03:44;49.06;47.24;51.22;;
82857;Laerm;72620;47.774;9.620;2023-11-21T00:06:11;50.36;47.95;53.51;;
82857;Laerm;72620;47.774;9.620;2023-11-21T00:08:38;49.95;48.13;52.55;;
82857;Laerm;72620;47.774;9.620;2023-11-21T00:11:05;53.85;48.95;64.98;;
82857;Laerm;72620;47.774;9.620;2023-11-21T00:13:32;50.72;48.70;52.94;;
82857;Laerm;72620;47.774;9.620;2023-11-21T00:16:00;52.31;49.10;61.39;;
82857;Laerm;72620;47.774;9.620;2023-11-21T00:18:27;51.04;48.65;54.81;;
82857;Laerm;72620;47.774;9.620;2023-11-21T00:20:54;53.23;48.61;66.31;;
82857;Laerm;72620;47.774;9.620;2023-11-21T00:23:21;49.91;48.40;52.03;;
82857;Laerm;72620;47.774;9.620;2023-11-21T00:25:48;53.83;47.91;68.53;;
82857;Laerm;72620;47.774;9.620;2023-11-21T00:28:15;49.19;47.78;52.21;;
82857;Laerm;72620;47.774;9.620;2023-11-21T00:30:43;48.97;46.98;51.61;;
82857;Laerm;72620;47.774;9.620;2023-11-21T00:33:10;49.34;47.54;51.95;;
82857;Laerm;72620;47.774;9.620;2023-11-21T00:35:37;49.40;47.76;61.47;;
82857;Laerm;72620;47.774;9.620;2023-11-21T00:38:04;50.41;47.05;53.71;;
82857;Laerm;72620;47.774;9.620;2023-11-21T00:40:31;53.34;47.79;65.63;;
82857;Laerm;72620;47.774;9.620;2023-11-21T00:42:59;51.46;48.20;54.03;;
82857;Laerm;72620;47.774;9.620;2023-11-21T00:45:27;51.55;49.02;53.95;;
82857;Laerm;72620;47.774;9.620;2023-11-21T00:47:54;52.36;48.93;55.86;;
82857;Laerm;72620;47.774;9.620;2023-11-21T00:50:21;54.51;49.48;66.75;;
82857;Laerm;72620;47.774;9.620;2023-11-21T00:52:48;49.37;47.79;52.54;;
82857;Laerm;72620;47.774;9.620;2023-11-21T00:55:16;49.83;48.10;54.21;;
82857;Laerm;72620;47.774;9.620;2023-11-21T00:57:44;49.64;48.09;52.74;;
82857;Laerm;72620;47.774;9.620;2023-11-21T01:00:11;49.34;47.91;51.49;;
82857;Laerm;72620;47.774;9.620;2023-11-21T01:02:44;49.21;47.69;52.07;;
82857;Laerm;72620;47.774;9.620;2023-11-21T01:05:12;57.91;47.88;72.70;;
82857;Laerm;72620;47.774;9.620;2023-11-21T01:07:39;57.83;48.04;69.68;;
82857;Laerm;72620;47.774;9.620;2023-11-21T01:10:07;58.62;48.05;70.81;;
82857;Laerm;72620;47.774;9.620;2023-11-21T01:12:37;51.70;47.68;62.26;;
82857;Laerm;72620;47.774;9.620;2023-11-21T01:15:06;49.19;47.59;51.13;;
82857;Laerm;72620;47.774;9.620;2023-11-21T01:17:39;49.19;47.80;52.77;;
82857;Laerm;72620;47.774;9.620;2023-11-21T01:20:07;54.30;47.71;68.43;;
82857;Laerm;72620;47.774;9.620;2023-11-21T01:22:40;50.53;48.81;53.44;;
82857;Laerm;72620;47.774;9.620;2023-11-21T01:25:07;54.19;49.30;66.12;;
82857;Laerm;72620;47.774;9.620;2023-11-21T01:27:34;56.01;48.97;68.68;;
82857;Laerm;72620;47.774;9.620;2023-11-21T01:30:03;57.24;48.54;70.28;;
82857;Laerm;72620;47.774;9.620;2023-11-21T01:32:31;50.54;49.04;52.29;;
82857;Laerm;72620;47.774;9.620;2023-11-21T01:34:59;49.85;48.18;52.19;;
82857;Laerm;72620;47.774;9.620;2023-11-21T01:37:26;51.84;48.40;61.48;;
82857;Laerm;72620;47.774;9.620;2023-11-21T01:39:54;49.40;48.18;53.26;;
82857;Laerm;72620;47.774;9.620;2023-11-21T01:42:23;54.60;47.87;69.82;;
82857;Laerm;72620;47.774;9.620;2023-11-21T01:44:50;49.34;47.93;53.31;;
82857;Laerm;72620;47.774;9.620;2023-11-21T01:47:17;53.09;48.83;65.03;;
82857;Laerm;72620;47.774;9.620;2023-11-21T01:49:45;51.67;48.67;61.13;;
82857;Laerm;72620;47.774;9.620;2023-11-21T01:52:13;55.41;49.43;68.19;;
82857;Laerm;72620;47.774;9.620;2023-11-21T01:54:42;50.79;49.25;52.42;;
82857;Laerm;72620;47.774;9.620;2023-11-21T01:57:09;52.33;48.98;62.07;;
82857;Laerm;72620;47.774;9.620;2023-11-21T01:59:38;51.33;49.45;53.26;;
82857;Laerm;72620;47.774;9.620;2023-11-21T02:02:07;50.60;49.21;53.70;;
82857;Laerm;72620;47.774;9.620;2023-11-21T02:04:36;53.86;49.26;66.54;;
82857;Laerm;72620;47.774;9.620;2023-11-21T02:07:04;49.98;48.50;55.77;;
82857;Laerm;72620;47.774;9.620;2023-11-21T02:09:34;49.61;48.12;52.13;;
82857;Laerm;72620;47.774;9.620;2023-11-21T02:12:01;55.73;47.91;66.65;;
82857;Laerm;72620;47.774;9.620;2023-11-21T02:14:30;49.53;48.04;52.69;;
82857;Laerm;72620;47.774;9.620;2023-11-21T02:16:57;57.26;48.54;68.11;;
82857;Laerm;72620;47.774;9.620;2023-11-21T02:19:24;57.69;48.24;70.61;;
82857;Laerm;72620;47.774;9.620;2023-11-21T02:21:59;49.70;48.31;52.11;;
82857;Laerm;72620;47.774;9.620;2023-11-21T02:24:30;54.33;48.49;67.50;;
82857;Laerm;72620;47.774;9.620;2023-11-21T02:26:57;49.93;48.13;52.27;;
82857;Laerm;72620;47.774;9.620;2023-11-21T02:29:24;55.12;48.36;65.83;;
82857;Laerm;72620;47.774;9.620;2023-11-21T02:31:55;49.47;48.11;52.71;;
82857;Laerm;72620;47.774;9.620;2023-11-21T02:34:23;49.53;48.20;52.47;;
82857;Laerm;72620;47.774;9.620;2023-11-21T02:36:52;50.11;48.02;60.37;;
82857;Laerm;72620;47.774;9.620;2023-11-21T02:39:19;52.29;47.75;64.40;;
82857;Laerm;72620;47.774;9.620;2023-11-21T02:41:50;49.51;47.96;54.53;;
82857;Laerm;72620;47.774;9.620;2023-11-21T02:44:17;55.80;48.56;68.73;;
82857;Laerm;72620;47.774;9.620;2023-11-21T02:46:44;50.52;48.78;53.67;;
82857;Laerm;72620;47.774;9.620;2023-11-21T02:49:11;56.49;48.49;66.64;;
82857;Laerm;72620;47.774;9.620;2023-11-21T02:51:39;50.25;48.57;53.64;;
82857;Laerm;72620;47.774;9.620;2023-11-21T02:54:06;55.12;51.11;60.76;;
82857;Laerm;72620;47.774;9.620;2023-11-21T02:56:35;54.44;52.15;57.52;;
82857;Laerm;72620;47.774;9.620;2023-11-21T02:59:02;52.00;50.18;54.08;;
82857;Laerm;72620;47.774;9.620;2023-11-21T03:01:30;51.66;50.14;55.60;;
82857;Laerm;72620;47.774;9.620;2023-11-21T03:03:57;58.53;50.64;70.50;;
82857;Laerm;72620;47.774;9.620;2023-11-21T03:06:24;58.47;51.92;68.59;;
82857;Laerm;72620;47.774;9.620;2023-11-21T03:08:51;54.52;53.27;57.29;;
82857;Laerm;72620;47.774;9.620;2023-11-21T03:11:18;55.45;54.19;57.66;;
82857;Laerm;72620;47.774;9.620;2023-11-21T03:13:45;57.04;53.72;67.38;;
82857;Laerm;72620;47.774;9.620;2023-11-21T03:16:13;56.60;53.44;63.29;;
82857;Laerm;72620;47.774;9.620;2023-11-21T03:18:40;58.13;52.01;69.14;;
82857;Laerm;72620;47.774;9.620;2023-11-21T03:21:08;59.03;52.21;69.36;;
82857;Laerm;72620;47.774;9.620;2023-11-21T03:23:38;59.64;52.22;71.05;;
82857;Laerm;72620;47.774;9.620;2023-11-21T03:26:05;58.39;51.36;66.39;;
82857;Laerm;72620;47.774;9.620;2023-11-21T03:28:35;57.78;50.85;68.90;;
82857;Laerm;72620;47.774;9.620;2023-11-21T03:31:02;56.45;51.35;69.01;;
82857;Laerm;72620;47.774;9.620;2023-11-21T03:33:29;53.64;52.13;59.53;;
82857;Laerm;72620;47.774;9.620;2023-11-21T03:35:56;61.97;53.40;73.30;;
82857;Laerm;72620;47.774;9.620;2023-11-21T03:38:24;59.22;55.64;68.74;;
82857;Laerm;72620;47.774;9.620;2023-11-21T03:40:51;61.11;55.90;72.06;;
82857;Laerm;72620;47.774;9.620;2023-11-21T03:43:18;59.90;56.82;68.24;;
82857;Laerm;72620;47.774;9.620;2023-11-21T03:45:45;59.42;56.05;68.69;;
82857;Laerm;72620;47.774;9.620;2023-11-21T03:48:13;57.74;54.33;65.77;;
82857;Laerm;72620;47.774;9.620;2023-11-21T03:50:40;59.71;54.68;69.27;;
82857;Laerm;72620;47.774;9.620;2023-11-21T03:53:07;56.84;52.65;68.85;;
82857;Laerm;72620;47.774;9.620;2023-11-21T03:55:34;57.56;52.25;67.72;;
82857;Laerm;72620;47.774;9.620;2023-11-21T03:58:01;62.12;52.95;71.26;;
82857;Laerm;72620;47.774;9.620;2023-11-21T04:00:29;59.81;52.70;67.96;;
82857;Laerm;72620;47.774;9.620;2023-11-21T04:02:57;58.13;52.03;70.46;;
82857;Laerm;72620;47.774;9.620;2023-11-21T04:05:24;60.04;51.46;70.91;;
82857;Laerm;72620;47.774;9.620;2023-11-21T04:07:51;60.25;51.34;69.39;;
82857;Laerm;72620;47.774;9.620;2023-11-21T04:10:19;59.46;50.90;68.81;;
82857;Laerm;72620;47.774;9.620;2023-11-21T04:12:46;56.73;50.44;68.49;;
82857;Laerm;72620;47.774;9.620;2023-11-21T04:15:14;56.66;50.17;66.53;;
82857;Laerm;72620;47.774;9.620;2023-11-21T04:17:42;59.82;50.40;67.64;;
82857;Laerm;72620;47.774;9.620;2023-11-21T04:20:09;57.10;50.39;68.14;;
82857;Laerm;72620;47.774;9.620;2023-11-21T04:22:43;63.47;50.52;73.77;;
82857;Laerm;72620;47.774;9.620;2023-11-21T04:25:15;57.23;50.01;67.28;;
82857;Laerm;72620;47.774;9.620;2023-11-21T04:27:44;61.03;51.07;71.01;;
82857;Laerm;72620;47.774;9.620;2023-11-21T04:30:14;62.16;50.31;70.12;;
82857;Laerm;72620;47.774;9.620;2023-11-21T04:32:42;63.63;50.60;71.72;;
82857;Laerm;72620;47.774;9.620;2023-11-21T04:35:09;62.53;50.25;73.68;;
82857;Laerm;72620;47.774;9.620;2023-11-21T04:37:37;63.46;49.22;72.25;;
82857;Laerm;72620;47.774;9.620;2023-11-21T04:40:05;59.04;48.96;67.82;;
82857;Laerm;72620;47.774;9.620;2023-11-21T04:42:35;54.26;48.90;67.10;;
82857;Laerm;72620;47.774;9.620;2023-11-21T04:45:06;60.71;49.48;71.96;;
82857;Laerm;72620;47.774;9.620;2023-11-21T04:47:36;61.42;49.50;69.43;;
82857;Laerm;72620;47.774;9.620;2023-11-21T04:50:05;61.31;49.25;71.98;;
82857;Laerm;72620;47.774;9.620;2023-11-21T04:52:32;61.06;49.28;69.33;;
82857;Laerm;72620;47.774;9.620;2023-11-21T04:55:00;60.13;49.31;68.91;;
82857;Laerm;72620;47.774;9.620;2023-11-21T04:57:29;62.80;49.34;72.77;;
82857;Laerm;72620;47.774;9.620;2023-11-21T04:59:56;57.49;49.31;68.79;;
82857;Laerm;72620;47.774;9.620;2023-11-21T05:02:23;62.01;49.61;69.29;;
82857;Laerm;72620;47.774;9.620;2023-11-21T05:05:04;60.53;48.96;70.90;;
82857;Laerm;72620;47.774;9.620;2023-11-21T05:07:33;62.68;48.99;70.53;;
82857;Laerm;72620;47.774;9.620;2023-11-21T05:10:07;62.64;49.25;71.80;;
82857;Laerm;72620;47.774;9.620;2023-11-21T05:12:42;63.23;48.40;70.07;;
82857;Laerm;72620;47.774;9.620;2023-11-21T05:15:12;61.22;48.87;69.55;;
82857;Laerm;72620;47.774;9.620;2023-11-21T05:17:41;60.14;48.87;68.35;;
82857;Laerm;72620;47.774;9.620;2023-11-21T05:20:12;61.36;48.76;69.85;;
82857;Laerm;72620;47.774;9.620;2023-11-21T05:22:40;61.31;48.66;69.67;;
82857;Laerm;72620;47.774;9.620;2023-11-21T05:25:09;63.32;49.67;70.86;;
82857;Laerm;72620;47.774;9.620;2023-11-21T05:27:38;62.69;48.82;70.95;;
82857;Laerm;72620;47.774;9.620;2023-11-21T05:30:06;64.22;50.23;71.37;;
82857;Laerm;72620;47.774;9.620;2023-11-21T05:32:34;59.56;48.73;69.47;;
82857;Laerm;72620;47.774;9.620;2023-11-21T05:35:01;63.21;50.52;70.26;;
82857;Laerm;72620;47.774;9.620;2023-11-21T05:37:28;62.32;49.07;68.79;;
82857;Laerm;72620;47.774;9.620;2023-11-21T05:39:55;63.06;49.27;69.76;;
82857;Laerm;72620;47.774;9.620;2023-11-21T05:42:33;63.72;49.84;72.56;;
82857;Laerm;72620;47.774;9.620;2023-11-21T05:45:01;63.60;49.51;71.04;;
82857;Laerm;72620;47.774;9.620;2023-11-21T05:47:42;63.62;49.43;70.02;;
82857;Laerm;72620;47.774;9.620;2023-11-21T05:50:11;65.08;50.08;70.28;;
82857;Laerm;72620;47.774;9.620;2023-11-21T05:52:44;63.74;52.19;71.21;;
82857;Laerm;72620;47.774;9.620;2023-11-21T05:55:12;65.05;51.90;70.89;;
82857;Laerm;72620;47.774;9.620;2023-11-21T05:57:42;63.97;53.68;70.55;;
82857;Laerm;72620;47.774;9.620;2023-11-21T06:00:13;64.06;51.35;71.74;;
82857;Laerm;72620;47.774;9.620;2023-11-21T06:02:49;63.28;49.73;70.12;;
82857;Laerm;72620;47.774;9.620;2023-11-21T06:05:24;63.47;50.70;73.23;;
82857;Laerm;72620;47.774;9.620;2023-11-21T06:07:55;64.40;51.49;70.52;;
82857;Laerm;72620;47.774;9.620;2023-11-21T06:10:27;63.18;49.81;73.30;;
82857;Laerm;72620;47.774;9.620;2023-11-21T06:12:55;63.04;52.52;70.63;;
82857;Laerm;72620;47.774;9.620;2023-11-21T06:15:24;63.05;53.61;71.95;;
82857;Laerm;72620;47.774;9.620;2023-11-21T06:17:51;62.71;54.17;68.78;;
82857;Laerm;72620;47.774;9.620;2023-11-21T06:20:21;63.98;54.80;71.85;;
82857;Laerm;72620;47.774;9.620;2023-11-21T06:22:50;60.41;53.13;67.57;;
82857;Laerm;72620;47.774;9.620;2023-11-21T06:25:18;68.94;56.52;79.14;;
82857;Laerm;72620;47.774;9.620;2023-11-21T06:27:47;67.70;55.89;76.69;;
82857;Laerm;72620;47.774;9.620;2023-11-21T06:30:15;66.91;56.41;74.88;;
82857;Laerm;72620;47.774;9.620;2023-11-21T06:32:43;64.57;55.41;72.98;;
82857;Laerm;72620;47.774;9.620;2023-11-21T06:35:14;64.88;56.66;74.46;;
82857;Laerm;72620;47.774;9.620;2023-11-21T06:37:44;65.07;55.19;71.53;;
82857;Laerm;72620;47.774;9.620;2023-11-21T06:40:18;65.33;55.18;74.59;;
82857;Laerm;72620;47.774;9.620;2023-11-21T06:42:46;64.92;55.94;76.96;;
82857;Laerm;72620;47.774;9.620;2023-11-21T06:45:16;64.40;55.07;76.40;;
82857;Laerm;72620;47.774;9.620;2023-11-21T06:47:43;64.85;55.29;75.07;;
82857;Laerm;72620;47.774;9.620;2023-11-21T06:50:11;65.03;54.49;72.37;;
82857;Laerm;72620;47.774;9.620;2023-11-21T06:52:38;64.58;54.93;73.36;;
82857;Laerm;72620;47.774;9.620;2023-11-21T06:55:06;65.24;54.12;73.83;;
82857;Laerm;72620;47.774;9.620;2023-11-21T06:57:36;64.70;54.70;73.12;;
82857;Laerm;72620;47.774;9.620;2023-11-21T07:00:04;63.58;56.23;70.47;;
82857;Laerm;72620;47.774;9.620;2023-11-21T07:02:31;63.90;55.35;70.07;;
82857;Laerm;72620;47.774;9.620;2023-11-21T07:04:59;64.13;55.70;70.80;;
82857;Laerm;72620;47.774;9.620;2023-11-21T07:07:27;64.64;53.53;80.09;;
82857;Laerm;72620;47.774;9.620;2023-11-21T07:09:55;64.25;53.18;73.82;;
82857;Laerm;72620;47.774;9.620;2023-11-21T07:12:22;66.36;54.57;76.16;;
82857;Laerm;72620;47.774;9.620;2023-11-21T07:14:50;64.51;53.51;73.66;;
82857;Laerm;72620;47.774;9.620;2023-11-21T07:17:17;65.20;53.50;72.95;;
82857;Laerm;72620;47.774;9.620;2023-11-21T07:19:44;63.97;52.42;70.28;;
82857;Laerm;72620;47.774;9.620;2023-11-21T07:22:12;64.99;53.37;74.70;;
82857;Laerm;72620;47.774;9.620;2023-11-21T07:24:39;66.08;54.31;73.76;;
82857;Laerm;72620;47.774;9.620;2023-11-21T07:27:07;61.58;53.36;70.63;;
82857;Laerm;72620;47.774;9.620;2023-11-21T07:29:35;64.68;54.36;74.75;;
82857;Laerm;72620;47.774;9.620;2023-11-21T07:32:02;64.08;56.60;73.19;;
82857;Laerm;72620;47.774;9.620;2023-11-21T07:34:30;63.66;54.55;72.91;;
82857;Laerm;72620;47.774;9.620;2023-11-21T07:36:57;62.79;54.78;76.64;;
82857;Laerm;72620;47.774;9.620;2023-11-21T07:39:24;63.77;52.94;72.69;;
82857;Laerm;72620;47.774;9.620;2023-11-21T07:41:51;67.35;56.03;75.14;;
82857;Laerm;72620;47.774;9.620;2023-11-21T07:44:18;62.69;51.85;75.34;;
82857;Laerm;72620;47.774;9.620;2023-11-21T07:46:48;66.98;58.16;76.67;;
82857;Laerm;72620;47.774;9.620;2023-11-21T07:49:17;63.88;57.51;71.68;;
82857;Laerm;72620;47.774;9.620;2023-11-21T07:51:47;64.25;54.86;72.32;;
82857;Laerm;72620;47.774;9.620;2023-11-21T07:54:16;64.11;54.86;75.34;;
82857;Laerm;72620;47.774;9.620;2023-11-21T07:56:43;60.64;52.40;68.12;;
82857;Laerm;72620;47.774;9.620;2023-11-21T07:59:10;60.52;52.00;76.36;;
82857;Laerm;72620;47.774;9.620;2023-11-21T08:01:37;66.99;51.35;81.31;;
82857;Laerm;72620;47.774;9.620;2023-11-21T08:04:05;61.36;52.30;70.23;;
82857;Laerm;72620;47.774;9.620;2023-11-21T08:06:33;64.86;51.15;78.28;;
82857;Laerm;72620;47.774;9.620;2023-11-21T08:09:00;63.07;52.31;72.15;;
82857;Laerm;72620;47.774;9.620;2023-11-21T08:11:28;64.38;52.85;72.86;;
82857;Laerm;72620;47.774;9.620;2023-11-21T08:13:59;60.60;51.73;75.39;;
82857;Laerm;72620;47.774;9.620;2023-11-21T08:16:26;63.64;51.54;71.81;;
82857;Laerm;72620;47.774;9.620;2023-11-21T08:18:54;64.07;52.26;72.22;;
82857;Laerm;72620;47.774;9.620;2023-11-21T08:21:22;64.60;54.20;70.14;;
82857;Laerm;72620;47.774;9.620;2023-11-21T08:23:50;63.46;51.59;73.23;;
82857;Laerm;72620;47.774;9.620;2023-11-21T08:26:22;63.80;51.39;74.60;;
82857;Laerm;72620;47.774;9.620;2023-11-21T08:28:49;63.38;52.47;73.82;;
82857;Laerm;72620;47.774;9.620;2023-11-21T08:31:25;61.97;52.74;74.11;;
82857;Laerm;72620;47.774;9.620;2023-11-21T08:33:52;64.52;51.55;73.21;;
82857;Laerm;72620;47.774;9.620;2023-11-21T08:36:23;64.98;53.44;73.79;;
82857;Laerm;72620;47.774;9.620;2023-11-21T08:38:51;62.60;52.13;73.50;;
82857;Laerm;72620;47.774;9.620;2023-11-21T08:41:19;61.74;53.67;72.34;;
82857;Laerm;72620;47.774;9.620;2023-11-21T08:43:50;63.75;55.26;70.69;;
82857;Laerm;72620;47.774;9.620;2023-11-21T08:46:18;62.12;52.93;77.24;;
82857;Laerm;72620;47.774;9.620;2023-11-21T08:48:46;66.19;54.90;73.85;;
82857;Laerm;72620;47.774;9.620;2023-11-21T08:51:13;64.57;53.67;72.37;;
82857;Laerm;72620;47.774;9.620;2023-11-21T08:53:42;63.55;53.10;72.74;;
82857;Laerm;72620;47.774;9.620;2023-11-21T08:56:13;63.46;53.10;69.69;;
82857;Laerm;72620;47.774;9.620;2023-11-21T08:58:46;60.22;51.39;69.54;;
82857;Laerm;72620;47.774;9.620;2023-11-21T09:01:13;64.01;52.29;74.39;;
82857;Laerm;72620;47.774;9.620;2023-11-21T09:03:40;63.55;52.97;73.24;;
82857;Laerm;72620;47.774;9.620;2023-11-21T09:06:08;65.50;54.09;73.53;;
82857;Laerm;72620;47.774;9.620;2023-11-21T09:08:37;65.59;53.03;73.28;;
82857;Laerm;72620;47.774;9.620;2023-11-21T09:11:04;66.24;55.82;77.78;;
82857;Laerm;72620;47.774;9.620;2023-11-21T09:13:32;65.73;54.93;74.23;;
82857;Laerm;72620;47.774;9.620;2023-11-21T09:16:00;62.52;52.10;72.83;;
82857;Laerm;72620;47.774;9.620;2023-11-21T09:18:27;62.92;51.88;73.87;;
82857;Laerm;72620;47.774;9.620;2023-11-21T09:20:54;65.25;52.86;77.90;;
82857;Laerm;72620;47.774;9.620;2023-11-21T09:23:21;63.62;52.57;70.37;;
82857;Laerm;72620;47.774;9.620;2023-11-21T09:25:48;64.85;53.07;74.64;;
82857;Laerm;72620;47.774;9.620;2023-11-21T09:28:17;64.19;51.68;75.17;;
82857;Laerm;72620;47.774;9.620;2023-11-21T09:30:44;61.56;51.40;76.77;;
82857;Laerm;72620;47.774;9.620;2023-11-21T09:33:11;64.27;52.15;70.69;;
82857;Laerm;72620;47.774;9.620;2023-11-21T09:35:39;63.12;52.81;72.47;;
82857;Laerm;72620;47.774;9.620;2023-11-21T09:38:06;65.32;53.76;74.83;;
82857;Laerm;72620;47.774;9.620;2023-11-21T09:40:38;63.51;53.69;74.38;;
82857;Laerm;72620;47.774;9.620;2023-11-21T09:43:11;65.35;52.83;74.81;;
82857;Laerm;72620;47.774;9.620;2023-11-21T09:45:48;63.80;51.57;73.92;;
82857;Laerm;72620;47.774;9.620;2023-11-21T09:48:21;63.90;52.33;75.72;;
82857;Laerm;72620;47.774;9.620;2023-11-21T09:50:50;62.69;51.93;72.11;;
82857;Laerm;72620;47.774;9.620;2023-11-21T09:53:21;63.96;51.55;74.87;;
82857;Laerm;72620;47.774;9.620;2023-11-21T09:55:53;63.64;51.11;75.11;;
82857;Laerm;72620;47.774;9.620;2023-11-21T09:58:21;64.39;51.80;74.55;;
82857;Laerm;72620;47.774;9.620;2023-11-21T10:00:59;62.57;52.64;71.56;;
82857;Laerm;72620;47.774;9.620;2023-11-21T10:03:26;64.61;52.56;80.23;;
82857;Laerm;72620;47.774;9.620;2023-11-21T10:05:56;62.46;50.86;77.83;;
82857;Laerm;72620;47.774;9.620;2023-11-21T10:08:29;64.41;52.71;71.01;;
82857;Laerm;72620;47.774;9.620;2023-11-21T10:11:17;61.74;51.43;70.77;;
82857;Laerm;72620;47.774;9.620;2023-11-21T10:13:47;61.82;51.02;69.71;;
82857;Laerm;72620;47.774;9.620;2023-11-21T10:16:19;66.47;50.68;82.95;;
82857;Laerm;72620;47.774;9.620;2023-11-21T10:18:53;62.59;51.60;72.73;;
82857;Laerm;72620;47.774;9.620;2023-11-21T10:21:38;63.14;52.09;71.70;;
82857;Laerm;72620;47.774;9.620;2023-11-21T10:24:07;62.93;51.68;69.60;;
82857;Laerm;72620;47.774;9.620;2023-11-21T10:26:35;64.93;51.34;74.77;;
82857;Laerm;72620;47.774;9.620;2023-11-21T10:29:16;63.56;51.62;71.30;;
82857;Laerm;72620;47.774;9.620;2023-11-21T10:31:43;64.44;51.77;74.01;;
82857;Laerm;72620;47.774;9.620;2023-11-21T10:34:16;64.40;52.73;75.67;;
82857;Laerm;72620;47.774;9.620;2023-11-21T10:36:45;61.52;51.94;70.73;;
82857;Laerm;72620;47.774;9.620;2023-11-21T10:39:22;63.58;52.51;70.61;;
82857;Laerm;72620;47.774;9.620;2023-11-21T10:41:50;62.38;51.88;76.14;;
82857;Laerm;72620;47.774;9.620;2023-11-21T10:44:18;63.94;52.25;73.91;;
82857;Laerm;72620;47.774;9.620;2023-11-21T10:46:50;65.44;52.85;75.34;;
82857;Laerm;72620;47.774;9.620;2023-11-21T10:49:20;63.40;53.60;72.98;;
82857;Laerm;72620;47.774;9.620;2023-11-21T10:51:47;63.86;53.11;79.77;;
82857;Laerm;72620;47.774;9.620;2023-11-21T10:54:24;64.71;54.21;76.79;;
82857;Laerm;72620;47.774;9.620;2023-11-21T10:57:00;63.71;54.30;76.34;;
82857;Laerm;72620;47.774;9.620;2023-11-21T10:59:30;63.64;55.03;70.19;;
82857;Laerm;72620;47.774;9.620;2023-11-21T11:02:04;64.13;52.99;71.38;;
82857;Laerm;72620;47.774;9.620;2023-11-21T11:04:37;66.32;54.28;74.35;;
82857;Laerm;72620;47.774;9.620;2023-11-21T11:07:10;64.70;52.87;70.50;;
82857;Laerm;72620;47.774;9.620;2023-11-21T11:09:40;66.26;52.16;72.43;;
82857;Laerm;72620;47.774;9.620;2023-11-21T11:12:08;66.13;54.87;73.73;;
82857;Laerm;72620;47.774;9.620;2023-11-21T11:14:40;65.37;55.46;72.46;;
82857;Laerm;72620;47.774;9.620;2023-11-21T11:17:09;65.29;53.85;71.86;;
82857;Laerm;72620;47.774;9.620;2023-11-21T11:19:40;63.74;52.51;70.00;;
82857;Laerm;72620;47.774;9.620;2023-11-21T11:22:40;63.67;53.43;73.16;;
82857;Laerm;72620;47.774;9.620;2023-11-21T11:25:38;65.23;52.70;74.40;;
82857;Laerm;72620;47.774;9.620;2023-11-21T11:29:02;63.50;52.79;71.73;;
82857;Laerm;72620;47.774;9.620;2023-11-21T11:37:00;63.42;54.41;71.35;;
82857;Laerm;72620;47.774;9.620;2023-11-21T11:39:34;72.23;55.40;90.06;;
82857;Laerm;72620;47.774;9.620;2023-11-21T11:42:07;64.70;54.41;69.74;;
82857;Laerm;72620;47.774;9.620;2023-11-21T11:47:25;63.95;54.13;72.92;;
82857;Laerm;72620;47.774;9.620;2023-11-21T11:50:17;63.27;52.90;70.51;;
82857;Laerm;72620;47.774;9.620;2023-11-21T11:52:48;62.54;53.01;68.64;;
82857;Laerm;72620;47.774;9.620;2023-11-21T11:55:20;63.76;53.45;71.41;;
82857;Laerm;72620;47.774;9.620;2023-11-21T11:57:51;66.99;56.51;72.53;;
82857;Laerm;72620;47.774;9.620;2023-11-21T12:00:38;68.92;64.25;74.79;;
82857;Laerm;72620;47.774;9.620;2023-11-21T12:03:09;68.17;55.59;75.71;;
82857;Laerm;72620;47.774;9.620;2023-11-21T12:05:37;63.81;54.98;75.29;;
82857;Laerm;72620;47.774;9.620;2023-11-21T12:08:09;64.17;55.25;72.47;;
82857;Laerm;72620;47.774;9.620;2023-11-21T12:10:39;64.30;52.04;70.99;;
82857;Laerm;72620;47.774;9.620;2023-11-21T12:13:10;63.73;53.08;70.82;;
82857;Laerm;72620;47.774;9.620;2023-11-21T12:15:39;62.75;53.05;70.36;;
82857;Laerm;72620;47.774;9.620;2023-11-21T12:18:09;64.41;53.64;69.89;;
82857;Laerm;72620;47.774;9.620;2023-11-21T12:20:36;64.25;53.34;76.20;;
82857;Laerm;72620;47.774;9.620;2023-11-21T12:23:07;63.65;53.54;71.53;;
82857;Laerm;72620;47.774;9.620;2023-11-21T12:25:36;63.66;51.26;73.23;;
82857;Laerm;72620;47.774;9.620;2023-11-21T12:28:04;63.91;52.17;71.55;;
82857;Laerm;72620;47.774;9.620;2023-11-21T12:30:36;62.33;52.18;69.07;;
82857;Laerm;72620;47.774;9.620;2023-11-21T12:33:05;61.72;52.58;75.01;;
82857;Laerm;72620;47.774;9.620;2023-11-21T12:35:37;61.73;53.59;70.37;;
82857;Laerm;72620;47.774;9.620;2023-11-21T12:38:05;63.31;55.61;68.04;;
82857;Laerm;72620;47.774;9.620;2023-11-21T12:40:33;62.51;53.75;70.56;;
82857;Laerm;72620;47.774;9.620;2023-11-21T12:43:01;64.13;54.39;69.73;;
82857;Laerm;72620;47.774;9.620;2023-11-21T12:45:31;60.12;51.37;67.86;;
82857;Laerm;72620;47.774;9.620;2023-11-21T12:48:05;63.72;52.93;71.36;;
82857;Laerm;72620;47.774;9.620;2023-11-21T12:50:39;61.04;51.27;69.44;;
82857;Laerm;72620;47.774;9.620;2023-11-21T12:53:12;63.16;52.41;72.35;;
82857;Laerm;72620;47.774;9.620;2023-11-21T12:55:39;62.47;52.70;68.71;;
82857;Laerm;72620;47.774;9.620;2023-11-21T12:58:10;63.61;53.34;70.20;;
82857;Laerm;72620;47.774;9.620;2023-11-21T13:00:48;62.98;52.25;69.70;;
82857;Laerm;72620;47.774;9.620;2023-11-21T13:03:17;61.28;51.13;77.12;;
82857;Laerm;72620;47.774;9.620;2023-11-21T13:05:48;63.50;52.05;73.43;;
82857;Laerm;72620;47.774;9.620;2023-11-21T13:08:21;63.09;52.88;70.07;;
82857;Laerm;72620;47.774;9.620;2023-11-21T13:10:55;61.54;52.15;71.00;;
82857;Laerm;72620;47.774;9.620;2023-11-21T13:13:25;62.58;52.41;71.63;;
82857;Laerm;72620;47.774;9.620;2023-11-21T13:15:57;62.47;51.07;69.36;;
82857;Laerm;72620;47.774;9.620;2023-11-21T13:18:28;62.31;51.86;73.18;;
82857;Laerm;72620;47.774;9.620;2023-11-21T13:21:01;62.77;50.19;70.82;;
82857;Laerm;72620;47.774;9.620;2023-11-21T13:23:35;63.14;51.79;71.74;;
82857;Laerm;72620;47.774;9.620;2023-11-21T13:26:05;64.81;50.79;73.99;;
82857;Laerm;72620;47.774;9.620;2023-11-21T13:28:35;64.83;51.41;74.25;;
82857;Laerm;72620;47.774;9.620;2023-11-21T13:31:06;63.03;50.65;70.08;;
82857;Laerm;72620;47.774;9.620;2023-11-21T13:33:39;62.97;50.20;69.89;;
82857;Laerm;72620;47.774;9.620;2023-11-21T13:36:08;61.87;51.10;70.25;;
82857;Laerm;72620;47.774;9.620;2023-11-21T13:38:37;61.21;50.60;76.29;;
82857;Laerm;72620;47.774;9.620;2023-11-21T13:41:10;61.92;52.20;69.60;;
82857;Laerm;72620;47.774;9.620;2023-11-21T13:43:39;63.18;52.56;73.67;;
82857;Laerm;72620;47.774;9.620;2023-11-21T13:46:10;62.56;52.91;72.66;;
82857;Laerm;72620;47.774;9.620;2023-11-21T13:48:44;64.53;53.77;75.96;;
82857;Laerm;72620;47.774;9.620;2023-11-21T13:51:18;62.86;51.90;76.93;;
82857;Laerm;72620;47.774;9.620;2023-11-21T13:53:49;62.88;51.41;72.47;;
82857;Laerm;72620;47.774;9.620;2023-11-21T13:56:19;64.08;50.33;74.84;;
82857;Laerm;72620;47.774;9.620;2023-11-21T13:58:49;61.41;50.42;68.45;;
82857;Laerm;72620;47.774;9.620;2023-11-21T14:01:23;64.07;52.75;69.37;;
82857;Laerm;72620;47.774;9.620;2023-11-21T14:03:58;62.25;51.05;68.93;;
82857;Laerm;72620;47.774;9.620;2023-11-21T14:06:49;62.45;51.98;70.50;;